Tuesday, July 22, 2014
17:34 UTC
  |  Log In   |  Register Free
Airport Search:

Independence Municipal Airport
(KIDP)

Independence Municipal Airport Diagram
No Airport Diagram Available

FAA data valid effective May 29, 2014 until July 24, 2014 (unless otherwise noted).

 
 
 
 
 
 
 
 
 
 
 
 
 
 

Current Aviation Weather for Independence Municipal Airport (KIDP)

The most recent METAR observation for KIDP was updated at: 1635 UTC
METAR Summary (Translated METAR)
KIDP
221635Z AUTO 24008KT 7SM CLR 30/22 A3009 RMK AO2
KCFV
(10.6 nm SE from KIDP)
221552Z AUTO 23009KT 7SM CLR 30/23 A3008 RMK AO2 SLP178 T03000233
TAF
No TAF information found within 50 nm of KIDP
  Airport Weather Conditions for KIDP

 Current Weather at IDP
88° F
Fair
Southwest winds at 10.4 mph
IDP NOAA Radar

Pressure: 30.08 in
Humidity: 59%
Wind: Southwest at 10.4 MPH (9 KT)
Dew Point: 71.6°F
Visibility: 7.00 mi


Airport Weather Forecast for KIDP

Translated METAR and TAF for KIDP
Translated METAR for KIDP (1727 UTC 22 July 2014)
found at http://aviationweather.gov/adds/metars/
 
METAR text: KIDP 221715Z AUTO 22008KT 10SM CLR 31/22 A3007 RMK AO2
Conditions at: KIDP (INDEPENDENCE , KS, US) observed 1715 UTC 22 July 2014
Temperature: 31.0°C (88°F)
Dewpoint: 22.0°C (72°F) [RH = 59%]
Pressure (altimeter): 30.07 inches Hg (1018.4 mb)
Winds: from the SW (220 degrees) at 9 MPH (8 knots; 4.2 m/s)
Visibility: 10 or more miles (16+ km)
Ceiling: at least 12,000 feet AGL
Clouds: sky clear below 12,000 feet AGL
Weather: automated observation with no human augmentation;
there may or may not be significant weather present at this time
Translated TAF for KIDP

There is no translated TAF available for this airport

Find All Airport Services Find A Hotel Find A Rental Car Find A Golf Course Find A Restaurant $100 Hamburger



FBO's on the Field
FBO Company Facility Photos Services Transportation Aviation Fuel Prices: Prices include tax
Catering Weather Repair Courtesy Rental Type 100LL JetA JetA+ MOGAS 8087
 
City of Independence

This FBO has not yet been rated
FS:Phillips66
Last Updated: Jul-21
Login to update fuel prices
SS:
Contact City of IndependenceMore FBO Information
 
Add another FBO Facility Photos Catering Weather Repair Courtesy Rental Type 100LL JetA JetA+ MOGAS 8087
Services Transportation Aviation Fuel Prices: Prices include tax


GlobalAir.com Airport Resource Center model-print
model-print
model-print
model-print